Предлагаем Вашему вниманию английскую версию страницы: AUTOTAF.ME 26226 - aviation weather forecast Kikhnu

AUTOTAF 26226 - авиапрогноз Кихну

Сегодня рассвет 04:41 UTC, восход солнца 05:22 UTC,
местный полдень 10:08 UTC, заход солнца 14:54 UTC,
наступление темноты 15:35 UTC.

Краткий прогноз 26226 на 9 часов

AUTOTAF.ME 26226 242000Z 2421/2506 27010G15MPS 9999 -RA BKN008      
  BECMG 2504/2506 29006MPS

Детальный прогноз 26226 на 24 часа

AUTOTAF.ME 26226 242000Z 2421/2521 27010G15MPS 9999 -RA BKN008 TX12/2518Z TN10/2506Z    
  BECMG 2504/2506 29006MPS  
  BECMG 2507/2509 23005MPS  
  BECMG 2510/2512 19006MPS   
  FM251800 18009MPS 9999 BKN010 
  FM252100 18010MPS 5000 BR BKN010

Подробный табличный прогноз

Время (UTC) miniAUTOTAF на 3 ч WX FZLVL
M AGL
ICE TURB Т
(°С)
Тd
(°С)
f(%) QNH
(гПа)
WIND/T
18 24011MPS 9999 -SHRA BKN008 OVC010CB -SHRA 1650 MOD FL70/FL90 MOD SFC/FL20 11 9 87 1004 ...
21 27010G15MPS 9999 -RA BKN008 -RA 1500 MOD SFC/FL20 11 8 82 1005 ...
25.10.2020
00 28011G16MPS 9999 BKN008 1950 MOD SFC/FL20 11 8 81 1007 ...
03 28010G15MPS 9999 BKN009 1950 MOD SFC/FL20 11 8 82 1009 ...
06 29006MPS 9999 BKN009 2550 MOD FL190/FL200 MOD SFC/FL20 10 7 81 1010 ...
09 23005MPS 9999 BKN010 2850 MOD FL120/FL130 MOD SFC/FL20 10 7 81 1012 ...
12 19006MPS 9999 BKN010 2850 MOD FL170/FL180 11 9 89 1013 ...
15 18008MPS 9999 BKN010 1950 MOD FL170/FL190 11 9 88 1012 ...
18 18009MPS 9999 BKN010 3000 12 10 89 1013 ...
21 18010MPS 5000 BR BKN010 BR 2700 12 10 92 1012 ...
26.10.2020
00 18010MPS 5000 BR BKN010 BR 2400 11 10 92 1013 ...
03 17011MPS 9999 BKN007 2550 11 10 91 1011 ...
06 17012MPS 9999 BKN007 2700 11 9 89 1012 ...
09 18012MPS 9999 BKN009 2550 MOD SFC/FL20 11 9 86 1011 ...
12 17010G16MPS 9999 BKN009 2700 MOD SFC/FL20 12 9 85 1011 ...
15 17008G14MPS 9999 BKN009 2550 12 10 86 1010 ...


Широта 58.1°, долгота 24°, высота 4 м абс.
Средняя высота рельефа местности 0 м абс.
Прогнозы обновляются четыре раза в сутки: в 02, 08, 14, 20 ч всемирного времени.


Выбрать прогноз по другой модели Кихну
Онлайн-сводка гроз по Кихну (для РФ и ближнего зарубежья)
Карта фактических гроз в окрестностях Кихну
Динамические прогностические карты (ventusky.com)
Прогностическая карта высоты нижней границы облаков по Кихну (windy.com)
Выбрать другой город

Прогноз предназначен для личного научно-познавательного использования частными лицами
и не предназначен для принятия важных решений и выполнения реальных полётов воздушных судов

При копировании или ином использовании любых материалов данного сайта ссылка на © meteocenter.asia обязательна.

1.12/1.6